Time;durP1;ratioP1;P1;durP2;ratioP2;P2;SDS_P1;SDS_P2;PMS_P1;PMS_P2;Temp;Humidity;BMP_temperature;BMP_pressure;BME280_temperature;BME280_humidity;BME280_pressure;Samples;Min_cycle;Max_cycle;Signal;HPM_P1;HPM_P2
2023/08/25 00:00:30;;;;;;;19.35;17.33;;;589.70;2432.00;;;;;;4958416;29;20416;-81
2023/08/25 00:02:56;;;;;;;22.50;18.95;;;589.70;2432.00;;;;;;4942432;29;20031;-82
2023/08/25 00:05:22;;;;;;;20.20;18.00;;;589.70;2432.00;;;;;;4942064;29;20039;-81
2023/08/25 00:07:48;;;;;;;22.55;18.77;;;589.70;2432.00;;;;;;4941364;29;20046;-81
2023/08/25 00:10:26;;;;;;;19.70;17.70;;;589.50;2432.00;;;;;;4942282;29;20019;-79
2023/08/25 00:12:52;;;;;;;27.25;18.20;;;589.50;2432.00;;;;;;4941791;29;20031;-80
2023/08/25 00:15:17;;;;;;;20.63;18.20;;;589.50;2432.00;;;;;;4942274;29;20127;-82
2023/08/25 00:17:43;;;;;;;18.95;16.98;;;589.50;2432.00;;;;;;4961163;29;20035;-81
2023/08/25 00:20:12;;;;;;;19.88;17.77;;;589.50;2432.00;;;;;;4944127;29;20031;-81
2023/08/25 00:22:38;;;;;;;21.33;17.08;;;589.60;2432.00;;;;;;4974891;29;20027;-79
2023/08/25 00:25:05;;;;;;;21.63;17.55;;;589.60;2432.00;;;;;;4948028;29;20057;-81
2023/08/25 00:27:30;;;;;;;19.40;17.38;;;589.50;2432.00;;;;;;4958233;29;20023;-80
2023/08/25 00:29:56;;;;;;;19.65;16.30;;;589.50;2432.00;;;;;;4941857;29;20035;-78
2023/08/25 00:32:22;;;;;;;23.88;18.27;;;589.40;2432.00;;;;;;4940561;29;20451;-84
2023/08/25 00:34:48;;;;;;;19.25;17.30;;;589.40;2432.00;;;;;;4940865;29;20035;-81
2023/08/25 00:37:13;;;;;;;18.98;16.85;;;589.30;2432.00;;;;;;4941285;29;20374;-80
2023/08/25 00:39:39;;;;;;;18.75;16.63;;;589.30;2432.00;;;;;;4941214;29;20082;-80
2023/08/25 00:42:05;;;;;;;18.25;16.42;;;589.30;2432.00;;;;;;4958351;29;20038;-80
2023/08/25 00:44:31;;;;;;;18.45;16.58;;;589.30;2432.00;;;;;;4941115;29;20122;-77
2023/08/25 00:46:58;;;;;;;22.35;17.73;;;589.20;2432.00;;;;;;4940966;29;20427;-78
2023/08/25 00:49:24;;;;;;;20.23;16.60;;;589.20;2432.00;;;;;;4940682;29;20460;-79
2023/08/25 00:51:52;;;;;;;18.23;16.25;;;589.30;2432.00;;;;;;4958053;29;20035;-78
2023/08/25 00:54:21;;;;;;;19.50;17.40;;;589.10;2432.00;;;;;;4941518;29;20042;-80
2023/08/25 00:56:49;;;;;;;17.15;15.40;;;589.30;2432.00;;;;;;4940546;29;20034;-80
2023/08/25 00:59:16;;;;;;;19.08;17.00;;;589.30;2432.00;;;;;;4940685;29;20034;-79
2023/08/25 01:01:45;;;;;;;19.38;17.10;;;589.40;2432.00;;;;;;4957347;29;20061;-79
2023/08/25 01:04:12;;;;;;;19.58;15.90;;;589.20;2432.00;;;;;;4957971;29;20034;-79
2023/08/25 01:06:39;;;;;;;21.00;16.45;;;589.20;2432.00;;;;;;4941021;29;20035;-79
2023/08/25 01:09:06;;;;;;;23.75;18.05;;;589.30;2432.00;;;;;;4940158;29;20432;-79
2023/08/25 01:11:50;;;;;;;21.25;17.60;;;589.20;2432.00;;;;;;4940480;29;20073;-79
2023/08/25 01:14:20;;;;;;;18.88;16.88;;;589.30;2432.00;;;;;;4940986;29;20035;-78
2023/08/25 01:16:50;;;;;;;21.40;18.55;;;589.20;2432.00;;;;;;4956898;29;20027;-80
2023/08/25 01:19:48;;;;;;;21.20;18.95;;;589.20;2432.00;;;;;;4940911;29;20035;-80
2023/08/25 01:22:20;;;;;;;22.00;18.13;;;589.20;2432.00;;;;;;4932931;29;20134;-79
2023/08/25 01:24:49;;;;;;;19.65;17.55;;;589.10;2432.00;;;;;;4940046;29;20042;-80
2023/08/25 01:27:15;;;;;;;24.95;17.60;;;589.10;2432.00;;;;;;4940153;29;20095;-79
2023/08/25 01:29:43;;;;;;;21.25;19.02;;;589.10;2432.00;;;;;;4939947;29;20035;-80
2023/08/25 01:32:09;;;;;;;21.48;19.17;;;589.20;2432.00;;;;;;4940220;29;20086;-79
2023/08/25 01:34:36;;;;;;;21.05;18.88;;;589.20;2432.00;;;;;;4939599;29;20035;-80
2023/08/25 01:37:10;;;;;;;21.52;18.55;;;589.20;2432.00;;;;;;4939662;29;20543;-79
2023/08/25 01:39:37;;;;;;;21.02;18.45;;;589.20;2432.00;;;;;;4942349;29;20034;-78
2023/08/25 01:42:07;;;;;;;21.35;19.15;;;589.20;2432.00;;;;;;4941885;28;20070;-78
2023/08/25 01:44:35;;;;;;;19.35;17.45;;;589.10;2432.00;;;;;;4941469;29;20035;-79
2023/08/25 01:47:07;;;;;;;21.20;19.00;;;589.20;2432.00;;;;;;4942082;29;20460;-78
2023/08/25 01:49:33;;;;;;;;;;;589.30;2432.00;;;;;;4942982;29;20039;-79
2023/08/25 01:51:59;;;;;;;22.02;17.80;;;589.20;2432.00;;;;;;4942086;29;19913;-81
2023/08/25 01:54:25;;;;;;;19.92;18.02;;;589.20;2432.00;;;;;;4940147;29;20118;-80
2023/08/25 01:56:51;;;;;;;20.15;18.00;;;589.30;2432.00;;;;;;4939810;29;20031;-79
2023/08/25 01:59:17;;;;;;;21.13;18.98;;;589.20;2432.00;;;;;;4939205;29;20030;-79
2023/08/25 02:01:42;;;;;;;20.08;18.02;;;589.10;2432.00;;;;;;4939832;29;20027;-77
2023/08/25 02:04:08;;;;;;;23.20;19.17;;;589.10;2432.00;;;;;;4940292;29;20170;-81
2023/08/25 02:06:35;;;;;;;21.50;18.98;;;589.20;2432.00;;;;;;4956480;29;20023;-80
2023/08/25 02:09:02;;;;;;;21.17;18.45;;;589.10;2432.00;;;;;;4956206;29;20129;-80
2023/08/25 02:11:29;;;;;;;21.08;19.17;;;589.30;2432.00;;;;;;4956427;29;20102;-81
2023/08/25 02:13:55;;;;;;;24.05;17.98;;;589.30;2432.00;;;;;;4940400;29;20061;-78
2023/08/25 02:16:21;;;;;;;21.45;19.23;;;589.00;2432.00;;;;;;4940090;29;20063;-80
2023/08/25 02:18:47;;;;;;;21.30;19.10;;;588.80;2432.00;;;;;;4939488;29;20474;-79
2023/08/25 02:21:12;;;;;;;21.70;18.65;;;564.10;2432.00;;;;;;4956693;29;20431;-79
2023/08/25 02:23:38;;;;;;;20.85;18.73;;;564.10;2432.00;;;;;;4939506;29;20055;-81
2023/08/25 02:26:04;;;;;;;19.20;17.17;;;588.90;2432.00;;;;;;4956523;29;20035;-81
2023/08/25 02:28:29;;;;;;;23.33;18.50;;;589.00;2432.00;;;;;;4939468;29;20450;-80
2023/08/25 02:30:55;;;;;;;20.30;18.30;;;589.00;2432.00;;;;;;4939268;29;20023;-80
2023/08/25 02:33:21;;;;;;;20.50;18.23;;;589.00;2432.00;;;;;;4938861;29;20086;-80
2023/08/25 02:35:47;;;;;;;19.75;17.65;;;589.20;2432.00;;;;;;4939030;29;20031;-79
2023/08/25 02:38:12;;;;;;;22.38;20.02;;;589.20;2432.00;;;;;;4944651;29;20039;-79
2023/08/25 02:40:39;;;;;;;21.00;18.63;;;589.00;2432.00;;;;;;4944707;29;20452;-79
2023/08/25 02:43:06;;;;;;;22.35;19.08;;;589.00;2432.00;;;;;;4938951;29;20031;-81
2023/08/25 02:45:33;;;;;;;20.63;18.63;;;589.00;2432.00;;;;;;4939358;29;20039;-80
2023/08/25 02:47:59;;;;;;;20.15;17.75;;;589.00;2432.00;;;;;;4955381;29;20059;-79
2023/08/25 02:50:25;;;;;;;22.58;18.55;;;588.90;2432.00;;;;;;4956289;29;20054;-80
2023/08/25 02:52:52;;;;;;;20.52;18.48;;;588.80;2432.00;;;;;;4955713;29;20024;-80
2023/08/25 02:55:22;;;;;;;21.92;19.08;;;588.80;2432.00;;;;;;4938159;29;20028;-79
2023/08/25 02:57:48;;;;;;;26.92;20.17;;;588.80;2432.00;;;;;;4939246;29;20365;-78
2023/08/25 03:00:16;;;;;;;22.83;20.42;;;588.80;2432.00;;;;;;4939947;29;20030;-78
2023/08/25 03:02:43;;;;;;;21.10;18.77;;;564.00;2432.00;;;;;;4958543;29;20487;-78
2023/08/25 03:05:09;;;;;;;23.75;19.65;;;588.80;2432.00;;;;;;4940174;29;20455;-81
2023/08/25 03:07:36;;;;;;;23.40;19.73;;;588.80;2432.00;;;;;;4938537;29;20023;-79
2023/08/25 03:10:02;;;;;;;20.90;18.90;;;588.80;2432.00;;;;;;4956393;29;20055;-79
2023/08/25 03:12:28;;;;;;;21.67;19.38;;;588.80;2432.00;;;;;;4938439;29;20043;-79
2023/08/25 03:14:54;;;;;;;21.90;19.52;;;564.10;2432.00;;;;;;4938415;29;20038;-79
2023/08/25 03:17:20;;;;;;;23.60;19.48;;;564.10;2432.00;;;;;;4938500;29;20042;-79
2023/08/25 03:19:46;;;;;;;23.25;20.08;;;588.80;2432.00;;;;;;4955456;29;20032;-81
2023/08/25 03:22:12;;;;;;;25.02;19.73;;;564.00;2432.00;;;;;;4938137;29;20407;-80
2023/08/25 03:24:38;;;;;;;20.83;18.60;;;564.00;2432.00;;;;;;4938669;29;20086;-80
2023/08/25 03:27:04;;;;;;;21.75;18.23;;;564.00;2432.00;;;;;;4955894;29;20024;-79
2023/08/25 03:29:31;;;;;;;20.52;18.60;;;564.10;2432.00;;;;;;4938411;29;20035;-80
2023/08/25 03:31:58;;;;;;;40.65;18.83;;;588.80;2432.00;;;;;;4938857;29;20074;-79
2023/08/25 03:34:24;;;;;;;21.05;18.23;;;588.90;2432.00;;;;;;4938366;29;20062;-79
2023/08/25 03:36:50;;;;;;;21.98;19.63;;;588.80;2432.00;;;;;;4938239;29;20067;-79
2023/08/25 03:39:16;;;;;;;20.67;18.38;;;564.00;2432.00;;;;;;4938897;29;20423;-80
2023/08/25 03:41:42;;;;;;;20.42;18.42;;;563.90;2432.00;;;;;;4938107;29;20061;-79
2023/08/25 03:44:08;;;;;;;21.65;18.50;;;589.00;2432.00;;;;;;4938231;29;20027;-79
2023/08/25 03:46:33;;;;;;;19.45;17.42;;;588.80;2432.00;;;;;;4938318;29;20426;-79
2023/08/25 03:49:00;;;;;;;18.85;16.95;;;588.80;2432.00;;;;;;4955724;29;20019;-79
2023/08/25 03:51:26;;;;;;;21.92;19.02;;;588.80;2432.00;;;;;;4938172;29;20082;-79
2023/08/25 03:53:51;;;;;;;24.05;18.85;;;588.80;2432.00;;;;;;4942149;29;20110;-78
2023/08/25 03:56:17;;;;;;;24.75;18.55;;;563.90;2432.00;;;;;;4963048;29;20027;-79
2023/08/25 03:58:43;;;;;;;22.55;19.02;;;564.00;2432.00;;;;;;4945123;29;20168;-78
2023/08/25 04:01:09;;;;;;;22.55;19.65;;;564.10;2432.00;;;;;;4945258;29;20034;-78
2023/08/25 04:03:35;;;;;;;24.35;18.92;;;563.90;2432.00;;;;;;4945045;29;20027;-77
2023/08/25 04:06:00;;;;;;;21.30;19.17;;;563.60;2432.00;;;;;;4962913;28;20024;-79
2023/08/25 04:08:26;;;;;;;21.67;19.52;;;563.40;2432.00;;;;;;4944779;29;20057;-79
2023/08/25 04:10:52;;;;;;;19.55;17.65;;;563.40;2432.00;;;;;;4958661;29;20040;-77
2023/08/25 04:13:19;;;;;;;20.17;17.30;;;563.60;2432.00;;;;;;4941587;29;20063;-81
2023/08/25 04:15:52;;;;;;;18.52;16.73;;;563.50;2432.00;;;;;;4941657;29;20031;-79
2023/08/25 04:18:18;;;;;;;19.40;17.27;;;563.60;2432.00;;;;;;4941330;29;20051;-77
2023/08/25 04:20:44;;;;;;;19.13;17.20;;;563.70;2432.00;;;;;;4941838;29;20121;-78
2023/08/25 04:23:10;;;;;;;20.40;17.63;;;563.70;2432.00;;;;;;4941633;29;20456;-79
2023/08/25 04:25:36;;;;;;;19.98;18.00;;;563.60;2432.00;;;;;;4941433;29;20170;-78
2023/08/25 04:28:01;;;;;;;21.13;18.77;;;563.60;2432.00;;;;;;4941541;29;20027;-78
2023/08/25 04:30:27;;;;;;;20.83;17.98;;;563.60;2432.00;;;;;;4941654;29;20031;-77
2023/08/25 04:32:53;;;;;;;18.77;16.98;;;563.70;2432.00;;;;;;4941316;29;20039;-81
2023/08/25 04:35:19;;;;;;;21.83;19.55;;;563.90;2432.00;;;;;;4959089;29;20383;-78
2023/08/25 04:37:47;;;;;;;22.60;19.35;;;563.70;2432.00;;;;;;4941912;29;20485;-78
2023/08/25 04:40:20;;;;;;;23.80;18.27;;;563.80;2432.00;;;;;;4941346;29;20031;-78
2023/08/25 04:42:45;;;;;;;19.50;17.50;;;563.90;2432.00;;;;;;4941651;29;20050;-79
2023/08/25 04:45:12;;;;;;;24.02;19.00;;;564.10;2432.00;;;;;;4942150;29;20043;-78
2023/08/25 04:47:39;;;;;;;23.85;19.13;;;563.90;2432.00;;;;;;4948141;29;20079;-79
2023/08/25 04:50:07;;;;;;;25.02;19.15;;;563.90;2432.00;;;;;;4947542;29;20057;-80
2023/08/25 04:52:36;;;;;;;21.92;18.08;;;563.80;2432.00;;;;;;4964628;29;20122;-79
2023/08/25 04:55:03;;;;;;;18.63;16.67;;;563.60;2432.00;;;;;;4964368;29;20047;-77
2023/08/25 04:57:29;;;;;;;22.88;18.42;;;563.60;2432.00;;;;;;4946518;29;20415;-79
2023/08/25 04:59:55;;;;;;;18.23;16.33;;;563.70;2432.00;;;;;;4957421;29;20127;-81
2023/08/25 05:02:20;;;;;;;22.13;17.48;;;563.60;2432.00;;;;;;4940823;29;20109;-79
2023/08/25 05:04:47;;;;;;;19.98;17.80;;;563.70;2432.00;;;;;;4957883;29;20031;-79
2023/08/25 05:07:13;;;;;;;22.17;17.75;;;563.70;2432.00;;;;;;4940344;29;20089;-79
2023/08/25 05:09:39;;;;;;;26.83;19.17;;;563.70;2432.00;;;;;;4940350;29;20053;-79
2023/08/25 05:12:05;;;;;;;19.77;17.60;;;563.60;2432.00;;;;;;4957833;29;20071;-79
2023/08/25 05:14:31;;;;;;;19.58;17.55;;;563.50;2432.00;;;;;;4940298;29;20037;-80
2023/08/25 05:16:57;;;;;;;23.83;18.70;;;563.70;2432.00;;;;;;4957787;28;20380;-80
2023/08/25 05:19:23;;;;;;;22.88;18.73;;;563.80;2432.00;;;;;;4957579;29;20035;-80
2023/08/25 05:21:48;;;;;;;19.95;17.80;;;563.80;2432.00;;;;;;4940085;29;20023;-81
2023/08/25 05:24:23;;;;;;;23.42;20.35;;;563.80;2432.00;;;;;;4940197;29;20472;-79
2023/08/25 05:26:53;;;;;;;23.10;20.60;;;563.70;2432.00;;;;;;4940210;29;20031;-79
2023/08/25 05:29:23;;;;;;;24.15;19.30;;;563.80;2432.00;;;;;;4956778;29;20035;-80
2023/08/25 05:31:49;;;;;;;23.65;18.52;;;564.00;2432.00;;;;;;4940426;29;20494;-79
2023/08/25 05:34:16;;;;;;;22.30;19.02;;;564.10;2432.00;;;;;;4940051;29;20043;-78
2023/08/25 05:36:42;;;;;;;24.83;20.10;;;588.80;2432.00;;;;;;4939702;29;20038;-79
2023/08/25 05:39:08;;;;;;;21.85;18.45;;;588.90;2432.00;;;;;;4939892;29;20083;-83
2023/08/25 05:41:34;;;;;;;21.10;18.85;;;589.00;2432.00;;;;;;4940213;29;20019;-81
2023/08/25 05:44:03;;;;;;;21.77;18.42;;;589.10;2432.00;;;;;;4957326;29;20035;-80
2023/08/25 05:46:30;;;;;;;24.30;21.45;;;589.20;2432.00;;;;;;4940426;29;20067;-81
2023/08/25 05:48:59;;;;;;;28.67;21.40;;;589.10;2432.00;;;;;;4939420;29;20089;-81
2023/08/25 05:51:26;;;;;;;24.45;18.92;;;589.00;2432.00;;;;;;4957109;29;20030;-80
2023/08/25 05:53:52;;;;;;;25.25;19.42;;;589.10;2432.00;;;;;;4939682;29;20034;-79
2023/08/25 05:56:18;;;;;;;24.55;19.15;;;589.10;2432.00;;;;;;4939359;29;20038;-80
2023/08/25 05:58:44;;;;;;;19.83;17.60;;;589.20;2432.00;;;;;;4940403;29;20019;-80
2023/08/25 06:01:11;;;;;;;23.80;19.75;;;589.50;2432.00;;;;;;4939646;29;20027;-79
2023/08/25 06:03:37;;;;;;;28.55;20.13;;;589.30;2432.00;;;;;;4939253;29;20031;-79
2023/08/25 06:06:03;;;;;;;23.05;18.70;;;589.40;2432.00;;;;;;4939402;29;20031;-80
2023/08/25 06:08:30;;;;;;;21.90;18.80;;;589.40;2432.00;;;;;;4939442;29;20051;-79
2023/08/25 06:10:56;;;;;;;25.75;19.88;;;589.50;2432.00;;;;;;4939378;29;20027;-80
2023/08/25 06:13:22;;;;;;;25.65;19.17;;;589.70;2432.00;;;;;;4939431;29;20027;-80
2023/08/25 06:15:52;;;;;;;24.70;18.42;;;589.70;2432.00;;;;;;4939515;29;20027;-79
2023/08/25 06:18:18;;;;;;;20.15;18.13;;;;;;;;;;4939073;29;20468;-81
2023/08/25 06:20:44;;;;;;;25.65;18.17;;;;;;;;;;4939343;29;20027;-79
2023/08/25 06:23:11;;;;;;;21.45;18.58;;;614.40;2432.00;;;;;;4939136;29;20075;-80
2023/08/25 06:25:37;;;;;;;21.60;17.65;;;614.50;2432.00;;;;;;4955173;29;20435;-82
2023/08/25 06:28:03;;;;;;;22.02;16.75;;;;;;;;;;4939289;28;20031;-80
2023/08/25 06:30:29;;;;;;;19.40;17.30;;;614.80;2432.00;;;;;;4938409;29;20048;-81
2023/08/25 06:32:55;;;;;;;20.88;16.48;;;614.70;2432.00;;;;;;4956650;29;20050;-79
2023/08/25 06:35:22;;;;;;;20.15;17.80;;;614.80;2432.00;;;;;;4956024;29;20050;-80
2023/08/25 06:37:49;;;;;;;19.20;16.50;;;614.80;2432.00;;;;;;4938686;29;20081;-81
2023/08/25 06:40:15;;;;;;;21.00;16.02;;;614.90;2432.00;;;;;;4939037;29;20027;-81
2023/08/25 06:42:41;;;;;;;18.83;16.75;;;615.00;2432.00;;;;;;4939485;29;20034;-80
2023/08/25 06:45:08;;;;;;;20.02;16.92;;;615.00;2432.00;;;;;;4938637;29;20467;-80
2023/08/25 06:47:34;;;;;;;19.33;16.98;;;615.10;2432.00;;;;;;4938858;29;20055;-79
2023/08/25 06:50:00;;;;;;;22.45;16.52;;;615.30;2432.00;;;;;;4938826;29;20027;-80
2023/08/25 06:52:26;;;;;;;22.20;16.58;;;615.30;2432.00;;;;;;4938479;29;20094;-81
2023/08/25 06:54:52;;;;;;;18.80;16.77;;;640.10;2432.00;;;;;;4938654;29;20078;-80
2023/08/25 06:57:18;;;;;;;20.05;17.73;;;640.20;2432.00;;;;;;4938620;29;20114;-80
2023/08/25 06:59:44;;;;;;;24.98;17.95;;;640.20;2432.00;;;;;;4938161;29;20030;-81
2023/08/25 07:02:10;;;;;;;21.73;18.00;;;640.20;2432.00;;;;;;4939340;29;20098;-81
2023/08/25 07:04:36;;;;;;;18.15;16.20;;;640.30;2432.00;;;;;;4938732;29;20039;-81
2023/08/25 07:07:02;;;;;;;18.83;16.80;;;640.30;2432.00;;;;;;4939062;29;20384;-81
2023/08/25 07:09:28;;;;;;;18.27;16.52;;;640.30;2432.00;;;;;;4938362;29;20055;-82
2023/08/25 07:11:54;;;;;;;19.35;16.70;;;640.40;2432.00;;;;;;4959370;29;20054;-82
2023/08/25 07:14:20;;;;;;;17.95;16.10;;;640.60;2432.00;;;;;;4944554;29;20424;-82
2023/08/25 07:16:46;;;;;;;18.80;16.50;;;640.60;2432.00;;;;;;4938515;29;20093;-82
2023/08/25 07:19:13;;;;;;;19.88;16.48;;;640.90;2432.00;;;;;;4938465;29;20066;-83
2023/08/25 07:21:39;;;;;;;22.60;17.05;;;640.90;2432.00;;;;;;4938269;29;20066;-80
2023/08/25 07:24:05;;;;;;;23.88;16.77;;;;;;;;;;4942326;29;20123;-81
2023/08/25 07:26:31;;;;;;;18.10;16.15;;;665.90;2432.00;;;;;;4941750;29;20090;-81
2023/08/25 07:28:56;;;;;;;18.05;16.27;;;666.00;2432.00;;;;;;4938453;29;20167;-80
2023/08/25 07:31:22;;;;;;;17.95;15.13;;;666.20;2432.00;;;;;;4938384;29;20378;-81
2023/08/25 07:33:48;;;;;;;17.65;15.95;;;666.20;2432.00;;;;;;4938095;29;20035;-80
2023/08/25 07:36:14;;;;;;;20.33;18.13;;;;;;;;;;4938290;29;20094;-80
2023/08/25 07:38:40;;;;;;;17.42;15.63;;;;;;;;;;4938488;29;20023;-80
2023/08/25 07:41:07;;;;;;;20.33;18.33;;;;;;;;;;4938677;29;20054;-81
2023/08/25 07:43:32;;;;;;;19.92;17.20;;;691.40;2432.00;;;;;;4959028;29;20078;-81
2023/08/25 07:45:58;;;;;;;21.20;16.45;;;691.60;2432.00;;;;;;4941943;29;20039;-81
2023/08/25 07:48:24;;;;;;;16.55;14.95;;;691.50;2432.00;;;;;;4941763;29;20119;-79
2023/08/25 07:50:50;;;;;;;17.98;16.00;;;691.60;2432.00;;;;;;4959031;29;20032;-80
2023/08/25 07:53:16;;;;;;;19.63;17.15;;;;;;;;;;4941873;29;20386;-79
2023/08/25 07:55:42;;;;;;;18.77;16.75;;;;;;;;;;4958699;29;20498;-78
2023/08/25 07:58:09;;;;;;;17.38;15.43;;;;;;;;;;4958865;29;20034;-79
2023/08/25 08:00:37;;;;;;;18.00;16.20;;;;;;;;;;4959005;29;20071;-80
2023/08/25 08:03:04;;;;;;;19.17;15.93;;;717.10;2432.00;;;;;;4958813;29;20140;-79
2023/08/25 08:05:31;;;;;;;22.02;17.23;;;;;;;;;;4958890;29;20028;-79
2023/08/25 08:07:58;;;;;;;17.23;15.40;;;717.20;2432.00;;;;;;4941424;29;20019;-79
2023/08/25 08:10:25;;;;;;;16.95;14.50;;;;;;;;;;4941449;29;20050;-80
2023/08/25 08:12:52;;;;;;;17.08;15.02;;;;;;;;;;4941606;29;20019;-80
2023/08/25 08:15:18;;;;;;;18.58;15.32;;;;;;;;;;4941576;29;20034;-79
2023/08/25 08:17:44;;;;;;;16.45;14.75;;;;;;;;;;4958778;29;20483;-81
2023/08/25 08:20:14;;;;;;;15.55;13.95;;;717.50;2432.00;;;;;;4941481;29;20045;-81
2023/08/25 08:22:41;;;;;;;16.35;13.77;;;717.40;2432.00;;;;;;4958386;29;20027;-80
2023/08/25 08:25:11;;;;;;;17.25;14.93;;;717.40;2432.00;;;;;;4941288;29;20075;-78
2023/08/25 08:27:40;;;;;;;17.83;15.35;;;717.50;2432.00;;;;;;4928488;29;20032;-81
2023/08/25 08:30:10;;;;;;;18.88;14.23;;;717.70;2432.00;;;;;;4922335;29;20034;-80
2023/08/25 08:32:37;;;;;;;16.45;14.70;;;742.40;2432.00;;;;;;4907560;29;20067;-80
2023/08/25 08:35:09;;;;;;;14.52;13.05;;;742.50;2432.00;;;;;;4939179;29;20400;-80
2023/08/25 08:37:36;;;;;;;14.63;13.15;;;742.80;2432.00;;;;;;4938077;29;20032;-81
2023/08/25 08:40:06;;;;;;;19.15;13.18;;;742.90;2432.00;;;;;;4922157;29;20023;-81
2023/08/25 08:42:36;;;;;;;18.63;14.27;;;743.00;2432.00;;;;;;4922444;29;20106;-82
2023/08/25 08:45:04;;;;;;;18.13;14.55;;;743.30;2432.00;;;;;;4939121;29;20035;-82
2023/08/25 08:47:32;;;;;;;13.48;12.07;;;;;;;;;;4921815;29;20130;-83
2023/08/25 08:49:59;;;;;;;15.38;11.40;;;;;;;;;;4922247;29;20035;-83
2023/08/25 08:52:26;;;;;;;12.88;10.85;;;;;;;;;;4921296;29;20035;-82
2023/08/25 08:54:52;;;;;;;11.85;10.75;;;;;;;;;;4921950;29;20023;-83
2023/08/25 08:57:18;;;;;;;14.02;10.07;;;;;;;;;;4921994;29;20123;-82
2023/08/25 08:59:44;;;;;;;12.85;10.43;;;;;;;;;;4938489;29;20091;-81
2023/08/25 09:02:13;;;;;;;13.20;11.43;;;768.60;2432.00;;;;;;4921914;29;20035;-84
2023/08/25 09:04:40;;;;;;;13.38;10.82;;;;;;;;;;4921514;29;20070;-82
2023/08/25 09:07:07;;;;;;;13.30;11.60;;;;;;;;;;4921753;29;20119;-82
2023/08/25 09:09:33;;;;;;;14.40;10.32;;;;;;;;;;4939312;29;20062;-82
2023/08/25 09:11:59;;;;;;;13.00;10.15;;;;;;;;;;4921324;29;20071;-81
2023/08/25 09:14:28;;;;;;;11.93;8.48;;;;;;;;;;4921990;29;20030;-83
2023/08/25 09:16:57;;;;;;;12.25;10.02;;;;;;;;;;4938695;29;20024;-81
2023/08/25 09:19:27;;;;;;;14.70;12.10;;;;;;;;;;4921145;29;20036;-81
2023/08/25 09:21:53;;;;;;;9.75;8.75;;;;;;;;;;4939733;29;20115;-84
2023/08/25 09:24:20;;;;;;;13.65;8.82;;;;;;;;;;4939349;29;20023;-82
2023/08/25 09:26:46;;;;;;;13.00;9.75;;;;;;;;;;4939092;29;20055;-83
2023/08/25 09:29:12;;;;;;;10.40;9.10;;;794.00;2304.00;;;;;;4928410;29;20020;-81
2023/08/25 09:31:38;;;;;;;11.23;10.05;;;793.90;2304.00;;;;;;4945711;29;20035;-82
2023/08/25 09:34:09;;;;;;;16.23;10.80;;;794.00;2329.60;;;;;;4921232;29;20056;-83
2023/08/25 09:36:48;;;;;;;10.88;9.10;;;819.20;2278.40;;;;;;4921585;29;20391;-83
2023/08/25 09:39:14;;;;;;;9.65;8.10;;;819.20;2278.40;;;;;;4921334;29;20031;-82
2023/08/25 09:41:42;;;;;;;11.90;9.57;;;819.30;2278.40;;;;;;4920612;29;20054;-82
2023/08/25 09:44:08;;;;;;;11.20;8.27;;;;;;;;;;4920827;29;20024;-83
2023/08/25 09:46:34;;;;;;;9.98;8.50;;;819.50;2252.80;;;;;;4920930;29;20028;-81
2023/08/25 09:49:02;;;;;;;11.32;8.35;;;819.80;2201.60;;;;;;4921301;29;20154;-83
2023/08/25 09:51:37;;;;;;;11.23;8.32;;;819.70;2201.60;;;;;;4921045;29;20590;-84
2023/08/25 09:54:10;;;;;;;12.73;7.95;;;819.90;2201.60;;;;;;4937346;29;20031;-82
2023/08/25 09:56:37;;;;;;;9.23;7.80;;;;;;;;;;4938205;29;20424;-81
2023/08/25 09:59:04;;;;;;;13.82;9.73;;;;;;;;;;4920791;29;20114;-82
2023/08/25 10:01:32;;;;;;;13.27;8.35;;;845.10;2150.40;;;;;;4920446;29;20024;-81
2023/08/25 10:03:59;;;;;;;11.35;7.70;;;;;;;;;;4919761;29;20034;-81
2023/08/25 10:06:25;;;;;;;9.40;7.78;;;;;;;;;;4920608;29;20031;-79
2023/08/25 10:08:51;;;;;;;13.02;7.80;;;;;;;;;;4919993;29;20407;-80
2023/08/25 10:11:19;;;;;;;8.63;7.63;;;;;;;;;;4920657;29;20028;-80
2023/08/25 10:13:46;;;;;;;12.63;8.40;;;;;;;;;;4920547;29;20024;-81
2023/08/25 10:16:12;;;;;;;10.50;7.68;;;870.40;2073.60;;;;;;4920447;29;20118;-77
2023/08/25 10:18:43;;;;;;;20.10;8.27;;;870.50;2099.20;;;;;;4920516;29;20056;-80
2023/08/25 10:21:12;;;;;;;10.38;8.20;;;845.40;2099.20;;;;;;4937522;29;20494;-81
2023/08/25 10:23:40;;;;;;;11.43;9.32;;;;;;;;;;4919991;29;20153;-79
2023/08/25 10:26:07;;;;;;;10.13;8.25;;;;;;;;;;4920709;29;20031;-81
2023/08/25 10:28:34;;;;;;;10.45;8.32;;;;;;;;;;4937213;29;20103;-80
2023/08/25 10:31:01;;;;;;;10.75;8.10;;;;;;;;;;4920624;29;20128;-83
2023/08/25 10:33:27;;;;;;;9.27;8.15;;;;;;;;;;4920159;29;20488;-79
2023/08/25 10:35:55;;;;;;;11.75;8.18;;;;;;;;;;4919750;29;20066;-81
2023/08/25 10:38:36;;;;;;;12.00;8.10;;;870.50;2099.20;;;;;;4920859;29;20531;-82
2023/08/25 10:41:14;;;;;;;10.30;7.82;;;870.50;2073.60;;;;;;4920493;29;20423;-80
2023/08/25 10:43:41;;;;;;;11.38;8.52;;;;;;;;;;4919610;29;20499;-81
2023/08/25 10:46:08;;;;;;;10.55;9.15;;;871.10;2073.60;;;;;;4920641;29;20027;-78
2023/08/25 10:48:34;;;;;;;9.75;7.55;;;;;;;;;;4919964;29;20027;-80
2023/08/25 10:51:10;;;;;;;13.93;8.18;;;;;;;;;;4919735;29;20028;-82
2023/08/25 10:53:44;;;;;;;11.07;7.80;;;;;;;;;;4919759;29;20392;-82
2023/08/25 10:56:22;;;;;;;14.23;8.73;;;;;;;;;;4920061;29;20380;-81
2023/08/25 10:59:09;;;;;;;9.30;8.32;;;;;;;;;;4919590;29;20051;-82
2023/08/25 11:01:35;;;;;;;8.07;7.28;;;;;;;;;;4920360;29;20346;-84
2023/08/25 11:04:07;;;;;;;7.95;7.07;;;;;;;;;;4919370;29;20023;-79
2023/08/25 11:06:40;;;;;;;10.18;7.75;;;;;;;;;;4919588;29;20044;-82
2023/08/25 11:09:06;;;;;;;10.35;8.25;;;;;;;;;;4922701;29;20086;-80
2023/08/25 11:11:36;;;;;;;7.65;6.72;;;;;;;;;;4935402;29;20024;-80
2023/08/25 11:14:03;;;;;;;11.95;8.68;;;;;;;;;;4935895;29;20110;-78
2023/08/25 11:16:29;;;;;;;11.82;7.38;;;;;;;;;;4935436;29;20058;-80
2023/08/25 11:18:55;;;;;;;11.60;8.00;;;896.30;1920.00;;;;;;4935144;29;20024;-79
2023/08/25 11:21:25;;;;;;;11.88;9.70;;;;;;;;;;4936333;29;20028;-78
2023/08/25 11:23:51;;;;;;;10.95;9.38;;;;;;;;;;4935392;29;20020;-80
2023/08/25 11:26:18;;;;;;;11.43;7.53;;;;;;;;;;4934952;29;20064;-78
2023/08/25 11:28:51;;;;;;;11.70;7.90;;;;;;;;;;4935133;29;20480;-81
2023/08/25 11:31:20;;;;;;;12.18;7.82;;;;;;;;;;4935975;29;20119;-80
2023/08/25 11:33:47;;;;;;;9.57;7.63;;;;;;;;;;4935117;29;20538;-78
2023/08/25 11:36:15;;;;;;;10.55;8.07;;;896.90;1868.80;;;;;;4938604;29;20043;-76
2023/08/25 11:38:42;;;;;;;7.68;6.68;;;896.90;1920.00;;;;;;4939672;29;20055;-77
2023/08/25 11:41:10;;;;;;;12.32;6.80;;;921.70;1894.40;;;;;;4939449;29;20055;-81
2023/08/25 11:43:39;;;;;;;8.10;7.28;;;896.70;1920.00;;;;;;4937114;29;20032;-81
2023/08/25 11:46:05;;;;;;;9.38;6.90;;;;;;;;;;4936179;29;20384;-84
2023/08/25 11:48:34;;;;;;;14.50;8.05;;;;;;;;;;4935191;29;20027;-78
2023/08/25 11:51:01;;;;;;;9.23;7.38;;;;;;;;;;4935152;29;20024;-78
2023/08/25 11:53:27;;;;;;;10.48;6.97;;;;;;;;;;4934269;29;20028;-79
2023/08/25 11:56:05;;;;;;;16.45;7.82;;;;;;;;;;4936119;29;20036;-79
2023/08/25 11:58:34;;;;;;;11.93;7.55;;;;;;;;;;4935789;29;20047;-79
2023/08/25 12:01:01;;;;;;;10.25;8.52;;;;;;;;;;4935783;29;20539;-79
2023/08/25 12:03:28;;;;;;;10.40;6.63;;;922.40;1868.80;;;;;;4936041;29;20087;-79
2023/08/25 12:05:54;;;;;;;12.32;7.05;;;;;;;;;;4934495;29;20059;-78
2023/08/25 12:08:20;;;;;;;8.48;7.15;;;947.20;1817.60;;;;;;4940776;29;20122;-78
2023/08/25 12:10:46;;;;;;;9.85;7.15;;;922.50;1817.60;;;;;;4937789;29;20127;-81
2023/08/25 12:13:12;;;;;;;9.38;7.20;;;922.40;1817.60;;;;;;4937874;29;20028;-81
2023/08/25 12:15:44;;;;;;;8.60;7.70;;;921.70;1868.80;;;;;;4937506;29;20035;-78
2023/08/25 12:18:12;;;;;;;8.07;7.18;;;922.10;1843.20;;;;;;4937932;29;20038;-79
2023/08/25 12:20:43;;;;;;;8.68;7.47;;;921.70;1817.60;;;;;;4937608;29;20038;-79
2023/08/25 12:23:09;;;;;;;8.17;7.33;;;922.00;1817.60;;;;;;4955349;29;20106;-79
2023/08/25 12:25:35;;;;;;;8.60;7.40;;;922.40;1843.20;;;;;;4937837;29;20515;-79
2023/08/25 12:28:01;;;;;;;10.43;7.15;;;947.30;1817.60;;;;;;4939587;29;20038;-79
2023/08/25 12:30:29;;;;;;;8.82;7.28;;;;;;;;;;4941163;29;20027;-79
2023/08/25 12:32:55;;;;;;;9.00;6.13;;;;;;;;;;4958359;29;20411;-80